Time;durP1;ratioP1;P1;durP2;ratioP2;P2;SDS_P1;SDS_P2;PMS_P1;PMS_P2;Temp;Humidity;BMP_temperature;BMP_pressure;BME280_temperature;BME280_humidity;BME280_pressure;Samples;Min_cycle;Max_cycle;Signal;HPM_P1;HPM_P2
2021/06/25 00:00:14;;;;;;;58.47;2.50;;;17.90;1.00;;;;;;5074111;28;20533;-73
2021/06/25 00:02:41;;;;;;;58.60;2.70;;;17.80;1.00;;;;;;5073623;28;20914;-72
2021/06/25 00:05:09;;;;;;;58.60;2.90;;;17.80;1.00;;;;;;5058421;28;20502;-72
2021/06/25 00:07:36;;;;;;;58.50;2.60;;;17.80;1.00;;;;;;5053493;28;20815;-73
2021/06/25 00:10:07;;;;;;;58.23;2.70;;;17.80;1.00;;;;;;5053199;28;20535;-72
2021/06/25 00:12:34;;;;;;;58.30;2.50;;;17.80;1.00;;;;;;5053102;28;20566;-72
2021/06/25 00:15:01;;;;;;;58.20;2.50;;;17.90;1.00;;;;;;5053894;28;20490;-72
2021/06/25 00:17:28;;;;;;;58.27;2.70;;;17.80;1.00;;;;;;5053534;28;20481;-72
2021/06/25 00:19:55;;;;;;;59.07;3.07;;;17.80;1.00;;;;;;5053621;28;20494;-72
2021/06/25 00:22:23;;;;;;;58.20;2.60;;;17.80;1.00;;;;;;5052983;28;20498;-72
2021/06/25 00:24:50;;;;;;;58.33;2.47;;;17.80;1.00;;;;;;5053058;28;20462;-73
2021/06/25 00:27:19;;;;;;;59.00;3.60;;;17.80;1.00;;;;;;5053401;28;20547;-72
2021/06/25 00:29:46;;;;;;;58.60;2.77;;;17.80;1.00;;;;;;5053520;28;20561;-72
2021/06/25 00:32:12;;;;;;;58.30;2.83;;;17.80;1.00;;;;;;5052672;28;20581;-72
2021/06/25 00:34:39;;;;;;;57.87;2.40;;;17.80;1.00;;;;;;5050277;28;20950;-72
2021/06/25 00:37:07;;;;;;;58.10;2.40;;;17.80;1.00;;;;;;5041112;28;20478;-72
2021/06/25 00:39:34;;;;;;;58.37;2.60;;;17.80;1.00;;;;;;5073252;28;20963;-73
2021/06/25 00:42:01;;;;;;;58.17;2.57;;;17.80;1.00;;;;;;5072808;28;20811;-73
2021/06/25 00:44:29;;;;;;;58.17;2.60;;;17.70;1.00;;;;;;5072982;28;20495;-72
2021/06/25 00:46:56;;;;;;;58.33;2.50;;;17.70;1.00;;;;;;5073051;28;20487;-73
2021/06/25 00:49:23;;;;;;;58.33;2.50;;;17.70;1.00;;;;;;5072760;28;20478;-72
2021/06/25 00:51:50;;;;;;;58.17;2.43;;;17.60;1.00;;;;;;5072277;28;20493;-72
2021/06/25 00:54:17;;;;;;;58.10;2.43;;;17.60;1.00;;;;;;5072427;28;20482;-73
2021/06/25 00:56:44;;;;;;;57.97;2.60;;;17.60;1.00;;;;;;5072626;28;20533;-72
2021/06/25 00:59:11;;;;;;;58.47;2.60;;;17.60;1.00;;;;;;5072892;28;20545;-72
2021/06/25 01:01:39;;;;;;;58.07;2.60;;;17.60;1.00;;;;;;5072202;28;20553;-72
2021/06/25 01:04:06;;;;;;;58.20;2.70;;;17.60;1.00;;;;;;5072404;28;20474;-72
2021/06/25 01:06:33;;;;;;;59.10;3.57;;;17.50;1.00;;;;;;5060755;28;20517;-72
2021/06/25 01:09:01;;;;;;;58.47;2.53;;;17.40;1.00;;;;;;5065041;28;20485;-73
2021/06/25 01:11:30;;;;;;;58.27;2.40;;;17.50;1.00;;;;;;5071634;28;20536;-73
2021/06/25 01:13:57;;;;;;;58.40;2.50;;;17.40;1.00;;;;;;5072424;28;20892;-73
2021/06/25 01:16:24;;;;;;;57.93;2.63;;;17.40;1.00;;;;;;5072504;28;20481;-72
2021/06/25 01:18:52;;;;;;;58.50;2.67;;;17.40;1.00;;;;;;5072583;28;20482;-72
2021/06/25 01:21:21;;;;;;;58.40;2.63;;;17.40;1.00;;;;;;5072285;28;20486;-72
2021/06/25 01:23:47;;;;;;;58.97;2.70;;;17.40;1.00;;;;;;5072243;28;20497;-72
2021/06/25 01:26:15;;;;;;;58.47;2.80;;;17.40;1.00;;;;;;5072029;28;20514;-72
2021/06/25 01:28:42;;;;;;;58.27;2.90;;;17.40;1.00;;;;;;5072245;28;20478;-73
2021/06/25 01:31:09;;;;;;;58.23;2.50;;;17.40;1.00;;;;;;5071849;28;20477;-73
2021/06/25 01:33:37;;;;;;;58.07;2.53;;;17.30;1.00;;;;;;5071574;28;20535;-72
2021/06/25 01:36:05;;;;;;;58.33;2.67;;;17.30;1.00;;;;;;5070204;28;20885;-73
2021/06/25 01:38:33;;;;;;;58.57;2.70;;;17.20;1.00;;;;;;5054423;28;20489;-72
2021/06/25 01:41:00;;;;;;;58.57;2.90;;;17.20;1.00;;;;;;5071891;28;20542;-72
2021/06/25 01:43:28;;;;;;;58.67;2.70;;;17.10;4.40;;;;;;5071576;28;20461;-72
2021/06/25 01:45:56;;;;;;;58.53;2.50;;;17.10;13.30;;;;;;5071600;28;20996;-72
2021/06/25 01:48:23;;;;;;;58.40;3.00;;;17.10;19.80;;;;;;5072022;28;20984;-72
2021/06/25 01:50:50;;;;;;;58.90;3.10;;;17.10;21.60;;;;;;5071912;28;20481;-72
2021/06/25 01:53:19;;;;;;;58.73;2.70;;;17.10;25.80;;;;;;5071376;28;20518;-72
2021/06/25 01:55:50;;;;;;;58.43;2.50;;;17.00;26.00;;;;;;5071794;28;20586;-72
2021/06/25 01:58:18;;;;;;;58.47;2.77;;;17.10;28.10;;;;;;5071664;28;20490;-72
2021/06/25 02:00:48;;;;;;;58.40;2.70;;;17.10;28.80;;;;;;5071766;28;20485;-73
2021/06/25 02:03:15;;;;;;;57.80;2.60;;;17.10;28.20;;;;;;5071655;28;20497;-72
2021/06/25 02:05:42;;;;;;;58.67;2.77;;;17.10;29.30;;;;;;5071822;28;20919;-73
2021/06/25 02:08:09;;;;;;;58.27;2.90;;;17.10;28.00;;;;;;5059121;28;20556;-73
2021/06/25 02:10:36;;;;;;;58.47;2.70;;;17.10;26.10;;;;;;5051351;28;20459;-72
2021/06/25 02:13:04;;;;;;;57.97;2.70;;;17.10;28.80;;;;;;5050884;28;20844;-73
2021/06/25 02:15:31;;;;;;;58.53;2.67;;;17.20;30.20;;;;;;5051760;28;20450;-72
2021/06/25 02:17:58;;;;;;;58.57;2.60;;;17.10;28.20;;;;;;5051567;28;20478;-72
2021/06/25 02:20:25;;;;;;;58.70;2.80;;;17.10;25.70;;;;;;5051473;28;20981;-72
2021/06/25 02:22:52;;;;;;;58.17;2.67;;;17.10;26.70;;;;;;5052920;28;20524;-73
2021/06/25 02:25:19;;;;;;;58.17;2.70;;;17.10;27.80;;;;;;5055385;28;20494;-72
2021/06/25 02:27:46;;;;;;;58.43;2.60;;;17.10;26.40;;;;;;5055712;28;20515;-72
2021/06/25 02:30:17;;;;;;;58.37;2.60;;;17.10;23.90;;;;;;5055650;28;20537;-72
2021/06/25 02:32:44;;;;;;;58.27;2.70;;;17.10;22.80;;;;;;5055248;28;20569;-72
2021/06/25 02:35:12;;;;;;;58.53;2.80;;;17.10;25.00;;;;;;5055392;28;20478;-72
2021/06/25 02:37:40;;;;;;;58.30;2.77;;;17.10;24.00;;;;;;5054208;28;20813;-73
2021/06/25 02:40:08;;;;;;;58.37;3.00;;;17.20;24.70;;;;;;5037769;28;20485;-73
2021/06/25 02:42:35;;;;;;;57.77;2.60;;;17.20;26.00;;;;;;5054843;28;20498;-73
2021/06/25 02:45:03;;;;;;;58.33;2.70;;;17.20;21.80;;;;;;5055154;28;20526;-73
2021/06/25 02:47:32;;;;;;;58.53;2.80;;;17.20;22.40;;;;;;5055133;28;20807;-73
2021/06/25 02:49:59;;;;;;;58.50;2.73;;;17.20;20.90;;;;;;5055142;28;20449;-73
2021/06/25 02:52:26;;;;;;;58.00;2.90;;;17.10;20.60;;;;;;5054668;28;20498;-73
2021/06/25 02:54:53;;;;;;;58.37;2.57;;;17.20;20.40;;;;;;5054851;28;21092;-73
2021/06/25 02:57:20;;;;;;;58.20;2.83;;;17.10;19.60;;;;;;5055132;28;20486;-73
2021/06/25 02:59:47;;;;;;;58.57;3.10;;;17.10;20.40;;;;;;5055139;28;20502;-73
2021/06/25 03:02:14;;;;;;;58.40;2.50;;;17.10;22.20;;;;;;5054642;28;20504;-73
2021/06/25 03:04:42;;;;;;;58.23;2.70;;;17.10;22.80;;;;;;5054871;28;20479;-73
2021/06/25 03:07:09;;;;;;;58.47;2.70;;;17.10;22.10;;;;;;5054676;28;20482;-73
2021/06/25 03:09:36;;;;;;;58.37;2.50;;;17.20;23.40;;;;;;5053511;28;20474;-73
2021/06/25 03:12:03;;;;;;;58.90;2.80;;;17.10;20.60;;;;;;5054315;28;20482;-73
2021/06/25 03:14:29;;;;;;;58.60;2.53;;;17.10;20.60;;;;;;5054810;28;20514;-73
2021/06/25 03:16:56;;;;;;;58.43;2.70;;;17.10;19.90;;;;;;5054667;28;20591;-73
2021/06/25 03:19:23;;;;;;;58.37;2.60;;;17.10;20.50;;;;;;5054568;28;20584;-73
2021/06/25 03:21:52;;;;;;;58.37;2.70;;;17.10;20.40;;;;;;5054124;28;20490;-73
2021/06/25 03:24:18;;;;;;;58.13;2.60;;;17.10;20.50;;;;;;5054323;28;20465;-73
2021/06/25 03:26:45;;;;;;;58.30;2.50;;;17.10;19.80;;;;;;5054514;28;20690;-73
2021/06/25 03:29:12;;;;;;;57.77;2.30;;;17.10;16.70;;;;;;5054468;28;20483;-73
2021/06/25 03:31:39;;;;;;;58.43;2.90;;;17.10;16.40;;;;;;5054135;28;20482;-73
2021/06/25 03:34:06;;;;;;;58.47;2.90;;;17.10;16.20;;;;;;5053569;28;20574;-73
2021/06/25 03:36:33;;;;;;;58.07;2.60;;;17.00;17.90;;;;;;5054231;28;20477;-73
2021/06/25 03:39:01;;;;;;;58.13;2.40;;;17.00;16.60;;;;;;5054369;28;20850;-73
2021/06/25 03:41:28;;;;;;;57.97;2.60;;;17.00;17.30;;;;;;5053467;28;20492;-73
2021/06/25 03:43:55;;;;;;;58.43;2.30;;;16.90;16.90;;;;;;5073788;28;20508;-73
2021/06/25 03:46:22;;;;;;;58.37;2.40;;;16.90;18.90;;;;;;5074066;28;20957;-73
2021/06/25 03:48:49;;;;;;;58.67;3.10;;;16.90;17.30;;;;;;5073852;28;20461;-73
2021/06/25 03:51:16;;;;;;;58.60;2.60;;;16.90;19.20;;;;;;5073767;28;20449;-73
2021/06/25 03:53:43;;;;;;;58.37;2.43;;;16.90;17.20;;;;;;5073819;28;20906;-73
2021/06/25 03:56:12;;;;;;;58.33;2.63;;;16.80;16.80;;;;;;5074006;28;20485;-73
2021/06/25 03:58:40;;;;;;;58.33;2.53;;;16.80;18.60;;;;;;5073913;28;20464;-73
2021/06/25 04:01:07;;;;;;;58.13;2.57;;;16.90;20.20;;;;;;5073635;28;20446;-73
2021/06/25 04:03:34;;;;;;;58.63;3.67;;;16.90;16.90;;;;;;5073627;28;20508;-71
2021/06/25 04:06:01;;;;;;;58.50;2.60;;;16.90;13.50;;;;;;5073649;28;20485;-71
2021/06/25 04:08:29;;;;;;;57.87;2.70;;;17.00;12.50;;;;;;5073797;28;20894;-72
2021/06/25 04:10:57;;;;;;;58.07;2.43;;;17.00;9.30;;;;;;5064086;28;20504;-72
2021/06/25 04:13:26;;;;;;;57.67;2.40;;;17.00;7.80;;;;;;5053060;28;20570;-72
2021/06/25 04:15:54;;;;;;;58.13;2.40;;;17.00;6.30;;;;;;5053371;28;20949;-72
2021/06/25 04:18:21;;;;;;;58.07;2.80;;;17.10;7.40;;;;;;5053689;28;20478;-72
2021/06/25 04:20:49;;;;;;;58.13;2.40;;;17.10;5.70;;;;;;5053280;28;20482;-72
2021/06/25 04:23:16;;;;;;;58.13;2.70;;;17.10;5.10;;;;;;5052931;28;21037;-74
2021/06/25 04:25:44;;;;;;;58.33;2.50;;;17.10;8.20;;;;;;5053234;28;20494;-72
2021/06/25 04:28:11;;;;;;;58.27;2.70;;;17.10;11.40;;;;;;5053440;28;20890;-72
2021/06/25 04:30:41;;;;;;;58.27;2.70;;;17.10;9.30;;;;;;5053113;28;20457;-72
2021/06/25 04:33:09;;;;;;;57.93;2.40;;;17.10;11.10;;;;;;5052913;28;20474;-73
2021/06/25 04:35:37;;;;;;;58.03;2.50;;;17.10;13.50;;;;;;5053226;28;20451;-71
2021/06/25 04:38:04;;;;;;;58.23;2.70;;;17.10;13.20;;;;;;5053683;28;20452;-71
2021/06/25 04:40:32;;;;;;;58.47;2.63;;;17.10;13.70;;;;;;5053527;28;21002;-72
2021/06/25 04:42:59;;;;;;;58.60;2.80;;;17.10;15.70;;;;;;5033885;28;20554;-72
2021/06/25 04:45:27;;;;;;;58.57;2.70;;;17.10;16.20;;;;;;5051972;28;20529;-72
2021/06/25 04:47:55;;;;;;;58.37;2.50;;;17.10;16.20;;;;;;5052977;28;20542;-72
2021/06/25 04:50:22;;;;;;;58.50;2.60;;;17.20;18.70;;;;;;5052955;28;20884;-71
2021/06/25 04:52:49;;;;;;;58.37;2.60;;;17.20;21.50;;;;;;5052518;28;20506;-72
2021/06/25 04:55:16;;;;;;;58.17;2.80;;;17.20;18.10;;;;;;5052800;28;20881;-72
2021/06/25 04:57:50;;;;;;;58.17;2.57;;;17.10;21.20;;;;;;5052637;28;20491;-72
2021/06/25 05:00:18;;;;;;;58.73;3.07;;;17.00;23.00;;;;;;5052704;28;21047;-72
2021/06/25 05:02:45;;;;;;;57.87;2.40;;;17.00;26.20;;;;;;5052442;28;20475;-72
2021/06/25 05:05:15;;;;;;;58.37;2.70;;;16.90;30.70;;;;;;5052756;28;20489;-72
2021/06/25 05:07:42;;;;;;;58.40;2.60;;;16.90;42.30;;;;;;5052387;28;20448;-72
2021/06/25 05:10:10;;;;;;;58.80;2.60;;;16.90;53.20;;;;;;5052083;28;20493;-72
2021/06/25 05:12:37;;;;;;;58.17;2.50;;;17.00;56.80;;;;;;5056133;28;20505;-72
2021/06/25 05:15:05;;;;;;;58.37;2.60;;;17.00;60.90;;;;;;5057084;28;20579;-72
2021/06/25 05:17:32;;;;;;;57.93;2.40;;;17.00;59.40;;;;;;5032372;28;20487;-72
2021/06/25 05:19:59;;;;;;;58.57;2.70;;;17.00;59.70;;;;;;5032520;28;20446;-72
2021/06/25 05:22:28;;;;;;;58.43;2.80;;;17.00;62.30;;;;;;5031890;28;20498;-72
2021/06/25 05:24:55;;;;;;;58.17;2.93;;;17.00;62.80;;;;;;5032313;28;20566;-71
2021/06/25 05:27:22;;;;;;;58.33;2.53;;;16.90;67.60;;;;;;5032401;28;20487;-71
2021/06/25 05:29:49;;;;;;;58.60;2.70;;;16.80;79.40;;;;;;5032386;28;20494;-72
2021/06/25 05:32:16;;;;;;;58.57;2.77;;;16.70;87.70;;;;;;5031890;28;20475;-71
2021/06/25 05:34:44;;;;;;;58.53;2.90;;;16.50;92.40;;;;;;5032299;28;20514;-73
2021/06/25 05:37:11;;;;;;;58.27;2.60;;;16.40;97.70;;;;;;5031946;28;20536;-73
2021/06/25 05:39:40;;;;;;;58.33;2.70;;;16.30;99.90;;;;;;5032371;28;20498;-73
2021/06/25 05:42:07;;;;;;;58.57;2.70;;;16.30;99.90;;;;;;5031945;28;20564;-73
2021/06/25 05:44:35;;;;;;;58.37;2.67;;;16.20;99.90;;;;;;5043051;28;20875;-72
2021/06/25 05:47:02;;;;;;;58.77;2.60;;;16.20;99.90;;;;;;5052221;28;20499;-72
2021/06/25 05:49:29;;;;;;;58.60;2.80;;;16.20;99.90;;;;;;5051764;28;20489;-72
2021/06/25 05:51:56;;;;;;;58.23;2.50;;;16.20;99.90;;;;;;5051464;28;20493;-71
2021/06/25 05:54:23;;;;;;;58.60;2.50;;;16.20;99.90;;;;;;5051540;28;20578;-72
2021/06/25 05:56:51;;;;;;;58.17;2.47;;;16.20;99.90;;;;;;5051232;28;20494;-71
2021/06/25 05:59:18;;;;;;;58.47;2.70;;;16.10;99.90;;;;;;5051917;28;20488;-71
2021/06/25 06:01:45;;;;;;;58.37;2.70;;;16.00;99.90;;;;;;5051531;28;20490;-71
2021/06/25 06:04:11;;;;;;;58.53;2.50;;;16.00;99.90;;;;;;5051408;28;20911;-71
2021/06/25 06:06:38;;;;;;;58.27;2.60;;;16.00;99.90;;;;;;5052129;28;20540;-71
2021/06/25 06:09:06;;;;;;;58.27;2.60;;;15.90;99.90;;;;;;5051825;28;20888;-71
2021/06/25 06:11:32;;;;;;;58.23;2.70;;;15.90;99.90;;;;;;5051545;28;20540;-71
2021/06/25 06:14:01;;;;;;;58.40;2.70;;;16.00;99.90;;;;;;5048565;28;20546;-71
2021/06/25 06:16:28;;;;;;;59.10;4.07;;;16.00;99.90;;;;;;5035908;28;20541;-71
2021/06/25 06:18:55;;;;;;;58.07;2.83;;;16.00;99.90;;;;;;5051476;28;20890;-70
2021/06/25 06:21:22;;;;;;;58.50;2.60;;;16.10;99.90;;;;;;5051577;28;20488;-71
2021/06/25 06:32:14;;;;;;;58.37;2.60;;;16.20;99.90;;;;;;5051317;28;20992;-70
2021/06/25 06:34:43;;;;;;;58.57;2.60;;;16.30;99.90;;;;;;5051569;28;20477;-71
2021/06/25 06:37:16;;;;;;;57.90;2.50;;;16.30;99.90;;;;;;5051495;28;20886;-71
2021/06/25 06:39:43;;;;;;;57.97;2.70;;;16.40;99.90;;;;;;5051210;28;20455;-71
2021/06/25 06:42:10;;;;;;;58.70;2.73;;;16.60;99.90;;;;;;5051248;28;20481;-71
2021/06/25 06:44:38;;;;;;;58.20;2.60;;;16.70;99.90;;;;;;5051245;28;20481;-71
2021/06/25 06:47:06;;;;;;;57.97;2.70;;;16.80;99.90;;;;;;5030503;28;20495;-71
2021/06/25 06:49:32;;;;;;;58.60;2.83;;;17.00;99.90;;;;;;5031461;28;20882;-71
2021/06/25 06:52:05;;;;;;;58.37;2.80;;;17.00;99.90;;;;;;5031034;28;20479;-71
2021/06/25 06:54:32;;;;;;;58.27;2.77;;;17.10;99.90;;;;;;5031658;28;20857;-71
2021/06/25 06:56:59;;;;;;;58.47;2.67;;;17.10;99.90;;;;;;5031194;28;20495;-70
2021/06/25 06:59:25;;;;;;;58.57;2.90;;;17.10;99.90;;;;;;5031274;28;20557;-70
2021/06/25 07:01:54;;;;;;;57.93;2.50;;;17.20;99.90;;;;;;5030919;28;21011;-70
2021/06/25 07:04:20;;;;;;;58.13;2.70;;;17.30;99.90;;;;;;5031130;28;20494;-70
2021/06/25 07:06:47;;;;;;;58.90;2.83;;;17.30;99.90;;;;;;5031010;28;20546;-70
2021/06/25 07:09:14;;;;;;;58.40;2.63;;;17.30;99.90;;;;;;5033566;28;20479;-71
2021/06/25 07:11:41;;;;;;;58.27;2.60;;;17.30;99.90;;;;;;5034680;28;20534;-70
2021/06/25 07:14:08;;;;;;;58.20;2.60;;;17.40;99.90;;;;;;5034653;28;20566;-70
2021/06/25 07:16:35;;;;;;;58.50;3.00;;;17.40;99.90;;;;;;5034869;28;20541;-70
2021/06/25 07:19:03;;;;;;;58.27;2.40;;;17.50;99.90;;;;;;5034538;28;20534;-69
2021/06/25 07:21:30;;;;;;;58.67;2.70;;;17.60;99.90;;;;;;5034167;28;20462;-69
2021/06/25 07:23:59;;;;;;;58.13;2.67;;;17.60;99.10;;;;;;5044021;28;20553;-72
2021/06/25 07:26:26;;;;;;;59.00;2.90;;;17.50;99.90;;;;;;5054528;28;20467;-70
2021/06/25 07:28:53;;;;;;;58.37;2.60;;;17.40;98.30;;;;;;5054678;28;20535;-70
2021/06/25 07:31:21;;;;;;;58.60;2.50;;;17.30;98.60;;;;;;5054271;28;21038;-70
2021/06/25 07:33:47;;;;;;;59.00;4.20;;;17.20;99.90;;;;;;5054119;28;20481;-71
2021/06/25 07:36:16;;;;;;;58.17;2.60;;;17.10;99.90;;;;;;5054364;28;20896;-71
2021/06/25 07:38:43;;;;;;;57.87;2.60;;;17.10;99.90;;;;;;5053132;28;20539;-70
2021/06/25 07:41:10;;;;;;;57.97;2.40;;;17.00;99.90;;;;;;5053370;28;20459;-70
2021/06/25 07:43:37;;;;;;;58.20;2.40;;;17.00;99.90;;;;;;5053616;28;20468;-70
2021/06/25 07:46:03;;;;;;;58.60;2.70;;;17.10;99.90;;;;;;5054068;28;20489;-70
2021/06/25 07:48:30;;;;;;;57.97;2.57;;;17.30;99.90;;;;;;5053924;28;20534;-70
2021/06/25 07:50:57;;;;;;;58.03;2.47;;;17.50;99.90;;;;;;5054090;28;20876;-70
2021/06/25 07:53:25;;;;;;;58.07;2.67;;;17.70;99.90;;;;;;5053627;28;20550;-70
2021/06/25 07:55:52;;;;;;;57.80;2.57;;;17.90;99.90;;;;;;5053795;28;21031;-70
2021/06/25 07:58:20;;;;;;;58.27;2.77;;;18.30;99.90;;;;;;5053847;28;20480;-69
2021/06/25 08:00:47;;;;;;;58.67;3.10;;;18.50;99.90;;;;;;5053612;28;20495;-70
2021/06/25 08:03:13;;;;;;;58.07;2.60;;;18.70;99.90;;;;;;5053490;28;20500;-69
2021/06/25 08:05:40;;;;;;;58.47;2.50;;;18.80;99.90;;;;;;5053953;28;20449;-70
2021/06/25 08:08:08;;;;;;;58.40;3.00;;;18.90;90.70;;;;;;5053936;28;20451;-70
2021/06/25 08:10:36;;;;;;;58.47;2.70;;;18.90;90.40;;;;;;5050905;28;20480;-70
2021/06/25 08:13:04;;;;;;;58.43;3.03;;;18.80;75.30;;;;;;5037153;28;20478;-70
2021/06/25 08:15:31;;;;;;;58.70;3.20;;;18.70;58.80;;;;;;5053477;28;20579;-70
2021/06/25 08:17:58;;;;;;;57.70;2.60;;;18.50;66.70;;;;;;5053703;28;20454;-70
2021/06/25 08:20:25;;;;;;;57.70;2.30;;;18.60;72.60;;;;;;5053565;28;20470;-70
2021/06/25 08:22:52;;;;;;;58.80;3.07;;;18.60;68.10;;;;;;5053211;28;20569;-70
2021/06/25 08:25:19;;;;;;;57.90;2.53;;;18.70;75.10;;;;;;5053467;28;20539;-70
2021/06/25 08:27:47;;;;;;;58.17;2.60;;;18.90;80.10;;;;;;5053294;28;20536;-70
2021/06/25 08:30:15;;;;;;;58.40;2.80;;;18.80;87.50;;;;;;5053573;28;20448;-70
2021/06/25 08:32:43;;;;;;;57.93;2.40;;;18.70;38.10;;;;;;5053244;28;20504;-70
2021/06/25 08:35:11;;;;;;;57.90;2.00;;;18.50;54.70;;;;;;5053325;28;20488;-70
2021/06/25 08:37:38;;;;;;;58.87;2.50;;;18.20;58.40;;;;;;5053228;28;20539;-70
2021/06/25 08:40:08;;;;;;;57.87;2.30;;;18.00;61.50;;;;;;5053062;28;21094;-70
2021/06/25 08:42:36;;;;;;;57.70;2.60;;;17.80;76.10;;;;;;5039150;28;20555;-70
2021/06/25 08:45:06;;;;;;;57.93;2.90;;;17.80;75.10;;;;;;5047834;28;21005;-70
2021/06/25 08:47:39;;;;;;;57.83;2.50;;;17.70;78.60;;;;;;5052886;28;20488;-72
2021/06/25 08:50:08;;;;;;;57.87;2.80;;;17.80;86.40;;;;;;5053042;28;20452;-72
2021/06/25 08:52:35;;;;;;;58.27;2.43;;;17.80;83.10;;;;;;5052823;28;20555;-72
2021/06/25 08:55:02;;;;;;;57.87;2.30;;;18.00;79.20;;;;;;5052776;28;20848;-72
2021/06/25 08:57:33;;;;;;;57.90;2.53;;;18.10;63.90;;;;;;5053296;28;20444;-73
2021/06/25 09:00:00;;;;;;;57.87;2.43;;;18.20;73.80;;;;;;5053086;28;20457;-73
2021/06/25 09:02:32;;;;;;;57.60;2.43;;;18.30;66.20;;;;;;5052562;28;20566;-73
2021/06/25 09:04:59;;;;;;;58.20;2.60;;;18.40;51.70;;;;;;5052926;28;20476;-73
2021/06/25 09:07:39;;;;;;;57.97;2.20;;;18.40;45.50;;;;;;5052597;28;20542;-73
2021/06/25 09:10:07;;;;;;;58.17;2.33;;;18.50;62.90;;;;;;5053019;28;20452;-73
2021/06/25 09:12:34;;;;;;;58.30;2.27;;;18.40;75.40;;;;;;5051732;28;20884;-73
2021/06/25 09:15:07;;;;;;;57.40;2.33;;;18.40;76.40;;;;;;5051349;28;20566;-72
2021/06/25 09:17:53;;;;;;;58.37;2.37;;;18.30;78.70;;;;;;5051922;28;20878;-72
2021/06/25 09:20:30;;;;;;;57.87;2.33;;;18.10;73.40;;;;;;5052644;28;20742;-72
2021/06/25 09:22:56;;;;;;;58.13;2.40;;;17.90;84.00;;;;;;5052198;28;20506;-72
2021/06/25 09:25:23;;;;;;;57.93;2.43;;;17.70;86.50;;;;;;5052355;28;20541;-72
2021/06/25 09:27:56;;;;;;;58.33;2.23;;;17.60;90.50;;;;;;5052319;28;20524;-73
2021/06/25 09:30:24;;;;;;;58.23;2.57;;;17.50;90.70;;;;;;5052114;28;20538;-73
2021/06/25 09:32:52;;;;;;;57.70;2.40;;;17.40;93.10;;;;;;5051639;28;20481;-72
2021/06/25 09:35:21;;;;;;;58.27;2.23;;;17.30;96.20;;;;;;5052431;28;20585;-72
2021/06/25 09:37:51;;;;;;;58.30;2.30;;;17.30;99.00;;;;;;5052291;28;20538;-72
2021/06/25 09:40:18;;;;;;;58.30;2.80;;;17.30;99.90;;;;;;5052153;28;20463;-72
2021/06/25 09:42:47;;;;;;;58.07;2.50;;;17.20;98.00;;;;;;5051663;28;20533;-73
2021/06/25 09:45:16;;;;;;;58.20;2.50;;;17.10;99.70;;;;;;5052184;28;20935;-73
2021/06/25 09:47:45;;;;;;;58.20;2.90;;;17.20;99.90;;;;;;5052260;28;20538;-72
2021/06/25 09:50:16;;;;;;;58.13;2.70;;;17.20;99.90;;;;;;5052130;28;20487;-72
2021/06/25 09:52:47;;;;;;;57.87;2.50;;;17.20;99.90;;;;;;5051663;28;20470;-73
2021/06/25 09:55:16;;;;;;;58.20;2.50;;;17.20;99.90;;;;;;5051817;28;20478;-71
2021/06/25 09:58:21;;;;;;;58.10;2.73;;;17.20;99.30;;;;;;5051713;28;20800;-72
2021/06/25 10:03:35;;;;;;;58.57;2.67;;;17.10;99.00;;;;;;5051772;28;20974;-72
2021/06/25 10:06:07;;;;;;;59.10;3.23;;;17.00;99.90;;;;;;5051650;28;20878;-72
2021/06/25 10:08:34;;;;;;;58.13;2.40;;;17.00;99.90;;;;;;5051929;28;20447;-72
2021/06/25 10:11:03;;;;;;;58.20;2.70;;;17.00;99.90;;;;;;5051808;28;20534;-72
2021/06/25 10:13:32;;;;;;;58.80;2.90;;;16.90;99.90;;;;;;5051478;28;20470;-73
2021/06/25 10:15:59;;;;;;;58.90;3.03;;;16.90;99.90;;;;;;5051565;28;20483;-73
2021/06/25 10:18:30;;;;;;;59.47;3.97;;;16.90;99.90;;;;;;5051572;28;20481;-72
2021/06/25 10:20:57;;;;;;;57.87;2.70;;;16.90;99.90;;;;;;5051756;28;20484;-72
2021/06/25 10:23:29;;;;;;;58.97;3.30;;;16.90;99.90;;;;;;5051434;28;20915;-72
2021/06/25 10:25:57;;;;;;;58.43;2.70;;;17.00;99.90;;;;;;5051586;28;20494;-72
2021/06/25 10:28:25;;;;;;;58.07;2.60;;;17.00;99.90;;;;;;5051734;28;20887;-72
2021/06/25 10:30:52;;;;;;;57.97;2.70;;;17.10;99.90;;;;;;5051462;28;20803;-72
2021/06/25 10:33:20;;;;;;;58.70;2.73;;;17.40;99.90;;;;;;5048403;28;20475;-72
2021/06/25 10:35:50;;;;;;;58.40;3.03;;;17.40;99.90;;;;;;5051499;28;20479;-72
2021/06/25 10:38:18;;;;;;;58.20;2.63;;;17.50;99.90;;;;;;5051664;28;21076;-72
2021/06/25 10:40:57;;;;;;;58.50;2.90;;;17.60;99.90;;;;;;5050060;28;20466;-72
2021/06/25 10:43:48;;;;;;;58.97;4.10;;;17.70;99.90;;;;;;5051734;28;20478;-72
2021/06/25 10:46:34;;;;;;;58.17;2.70;;;17.70;99.90;;;;;;5055506;28;20451;-73
2021/06/25 10:49:04;;;;;;;58.10;2.50;;;17.70;99.90;;;;;;5055543;28;20513;-73
2021/06/25 10:51:33;;;;;;;58.20;2.60;;;17.70;99.90;;;;;;5054981;28;20827;-72
2021/06/25 10:54:15;;;;;;;58.47;2.60;;;17.70;99.90;;;;;;5054936;28;20991;-72
2021/06/25 10:57:04;;;;;;;59.10;4.20;;;17.60;98.90;;;;;;5055115;28;20483;-73
2021/06/25 10:59:40;;;;;;;58.50;3.00;;;17.50;99.30;;;;;;5055124;28;20537;-72
2021/06/25 11:02:08;;;;;;;58.80;3.03;;;17.50;99.40;;;;;;5054421;28;20486;-73
2021/06/25 11:04:39;;;;;;;58.67;3.20;;;17.50;98.80;;;;;;5055271;28;20494;-73
2021/06/25 11:07:09;;;;;;;58.57;3.10;;;17.50;99.10;;;;;;5054864;28;20533;-72
2021/06/25 11:09:56;;;;;;;58.97;3.10;;;17.60;99.60;;;;;;5054963;28;20459;-72
2021/06/25 11:12:26;;;;;;;58.70;3.10;;;17.70;95.90;;;;;;5035681;28;20480;-72
2021/06/25 11:14:56;;;;;;;58.80;3.13;;;17.80;93.50;;;;;;5055107;28;20546;-72
2021/06/25 11:17:50;;;;;;;58.17;2.30;;;17.80;92.80;;;;;;5054593;28;20578;-72
2021/06/25 11:20:19;;;;;;;58.20;2.80;;;17.80;91.40;;;;;;5054789;28;20458;-71
2021/06/25 11:23:03;;;;;;;60.30;3.20;;;17.90;92.50;;;;;;5054241;28;20525;-72
2021/06/25 11:25:45;;;;;;;57.97;2.60;;;18.00;94.00;;;;;;5054629;28;20554;-72
2021/06/25 11:28:23;;;;;;;58.40;3.07;;;18.10;94.50;;;;;;5054362;28;20455;-72
2021/06/25 11:31:16;;;;;;;59.90;3.90;;;18.10;93.70;;;;;;5054604;28;20847;-72
2021/06/25 11:33:51;;;;;;;58.17;2.40;;;18.30;95.90;;;;;;5054315;28;20474;-73
2021/06/25 11:36:20;;;;;;;57.93;2.60;;;18.30;96.00;;;;;;5054415;28;20512;-72
2021/06/25 11:39:20;;;;;;;58.73;3.10;;;18.50;86.50;;;;;;5053988;28;20455;-72
2021/06/25 11:41:51;;;;;;;57.67;2.60;;;18.60;71.70;;;;;;5059368;28;20935;-72
2021/06/25 11:44:22;;;;;;;58.97;3.30;;;18.90;75.00;;;;;;5051113;28;20469;-72
2021/06/25 11:46:58;;;;;;;60.03;3.60;;;19.00;87.80;;;;;;5033907;28;20445;-73
2021/06/25 11:49:27;;;;;;;58.27;2.80;;;19.20;80.00;;;;;;5034051;28;20456;-73
2021/06/25 11:51:54;;;;;;;58.13;3.00;;;19.40;75.10;;;;;;5033699;28;20945;-73
2021/06/25 11:54:23;;;;;;;59.20;5.20;;;19.20;28.50;;;;;;5033186;28;20472;-72
2021/06/25 11:56:51;;;;;;;58.13;3.13;;;19.20;34.60;;;;;;5034199;28;20488;-73
2021/06/25 11:59:20;;;;;;;58.37;2.90;;;19.30;42.80;;;;;;5034244;28;20607;-73
2021/06/25 12:01:52;;;;;;;58.37;2.63;;;19.60;43.50;;;;;;5032392;28;20544;-73
2021/06/25 12:04:36;;;;;;;58.50;2.73;;;20.00;31.30;;;;;;5033902;28;20997;-73
2021/06/25 12:07:04;;;;;;;58.00;3.37;;;20.50;1.00;;;;;;5034065;28;20533;-74
2021/06/25 12:09:49;;;;;;;58.27;2.67;;;20.70;1.00;;;;;;5034002;28;20458;-73
2021/06/25 12:12:27;;;;;;;58.20;3.00;;;20.80;1.00;;;;;;5036342;28;20533;-72
2021/06/25 12:14:57;;;;;;;58.80;3.20;;;20.90;1.00;;;;;;5053508;28;20533;-73
2021/06/25 12:17:26;;;;;;;58.47;2.50;;;20.90;1.00;;;;;;5053440;28;20525;-73
2021/06/25 12:19:59;;;;;;;58.40;2.87;;;20.80;1.00;;;;;;5053791;28;20541;-73
2021/06/25 12:22:26;;;;;;;58.97;3.37;;;20.80;1.00;;;;;;5053220;28;20554;-73
2021/06/25 12:24:55;;;;;;;58.30;2.50;;;20.70;1.00;;;;;;5053441;28;20460;-73
2021/06/25 12:27:35;;;;;;;58.40;2.33;;;20.60;1.00;;;;;;5053413;28;20450;-73
2021/06/25 12:30:08;;;;;;;58.70;3.23;;;20.60;1.00;;;;;;5053734;28;20915;-73
2021/06/25 12:32:35;;;;;;;58.17;2.80;;;20.60;1.00;;;;;;5053353;28;20837;-73
2021/06/25 12:35:02;;;;;;;57.70;2.60;;;20.40;1.00;;;;;;5053320;28;20571;-73
2021/06/25 12:37:47;;;;;;;58.90;3.23;;;20.30;1.00;;;;;;5053207;28;20903;-73
2021/06/25 12:40:35;;;;;;;58.07;2.70;;;20.40;1.00;;;;;;5053152;28;20440;-72
2021/06/25 12:43:02;;;;;;;57.87;2.40;;;20.40;1.00;;;;;;5052704;28;20502;-73
2021/06/25 12:45:38;;;;;;;58.27;2.83;;;20.40;1.00;;;;;;5049784;28;20459;-73
2021/06/25 12:48:09;;;;;;;58.80;2.97;;;20.50;1.00;;;;;;5033670;28;20455;-73
2021/06/25 12:50:41;;;;;;;58.27;2.90;;;20.60;1.00;;;;;;5032870;28;20545;-73
2021/06/25 12:53:23;;;;;;;57.77;2.70;;;20.40;1.00;;;;;;5032807;28;20971;-73
2021/06/25 12:55:51;;;;;;;58.20;3.70;;;20.20;1.00;;;;;;5033235;28;20875;-73
2021/06/25 12:58:22;;;;;;;58.40;2.83;;;19.80;1.00;;;;;;5032929;28;20474;-73